sensor_id;sensor_type;location;lat;lon;timestamp;pressure;altitude;pressure_sealevel;temperature;humidity
6433;BME280;3249;42.690;23.260;2023-12-07T00:01:18;93840.63;;;4.53;100.00
6433;BME280;3249;42.690;23.260;2023-12-07T00:03:49;93846.88;;;4.51;100.00
6433;BME280;3249;42.690;23.260;2023-12-07T00:06:18;93854.19;;;4.67;100.00
6433;BME280;3249;42.690;23.260;2023-12-07T00:08:47;93855.94;;;4.66;100.00
6433;BME280;3249;42.690;23.260;2023-12-07T00:11:16;93850.50;;;4.76;100.00
6433;BME280;3249;42.690;23.260;2023-12-07T00:13:45;93850.72;;;4.81;100.00
6433;BME280;3249;42.690;23.260;2023-12-07T00:16:14;93844.97;;;4.72;100.00
6433;BME280;3249;42.690;23.260;2023-12-07T00:18:46;93848.53;;;4.78;100.00
6433;BME280;3249;42.690;23.260;2023-12-07T00:21:16;93853.41;;;4.66;100.00
6433;BME280;3249;42.690;23.260;2023-12-07T00:23:45;93856.41;;;4.83;100.00
6433;BME280;3249;42.690;23.260;2023-12-07T00:26:14;93845.63;;;4.87;100.00
6433;BME280;3249;42.690;23.260;2023-12-07T00:28:44;93853.88;;;4.83;100.00
6433;BME280;3249;42.690;23.260;2023-12-07T00:31:16;93857.97;;;4.77;100.00
6433;BME280;3249;42.690;23.260;2023-12-07T00:33:48;93744.50;;;4.34;100.00
6433;BME280;3249;42.690;23.260;2023-12-07T00:36:17;93853.34;;;5.07;100.00
6433;BME280;3249;42.690;23.260;2023-12-07T00:38:48;93852.56;;;5.20;100.00
6433;BME280;3249;42.690;23.260;2023-12-07T00:41:17;93853.38;;;5.27;100.00
6433;BME280;3249;42.690;23.260;2023-12-07T00:43:48;93854.53;;;5.31;100.00
6433;BME280;3249;42.690;23.260;2023-12-07T00:46:17;93853.38;;;5.33;100.00
6433;BME280;3249;42.690;23.260;2023-12-07T00:48:49;93849.44;;;5.31;100.00
6433;BME280;3249;42.690;23.260;2023-12-07T00:51:18;93837.66;;;5.23;100.00
6433;BME280;3249;42.690;23.260;2023-12-07T00:53:48;93853.00;;;5.36;100.00
6433;BME280;3249;42.690;23.260;2023-12-07T00:56:17;93844.72;;;5.34;100.00
6433;BME280;3249;42.690;23.260;2023-12-07T00:58:46;93849.44;;;5.37;100.00
6433;BME280;3249;42.690;23.260;2023-12-07T01:01:15;93850.81;;;5.46;100.00
6433;BME280;3249;42.690;23.260;2023-12-07T01:03:45;93842.16;;;5.15;100.00
6433;BME280;3249;42.690;23.260;2023-12-07T01:06:19;93845.91;;;5.25;100.00
6433;BME280;3249;42.690;23.260;2023-12-07T01:08:48;93846.06;;;5.11;100.00
6433;BME280;3249;42.690;23.260;2023-12-07T01:11:17;93843.06;;;4.87;100.00
6433;BME280;3249;42.690;23.260;2023-12-07T01:13:47;93843.44;;;4.78;100.00
6433;BME280;3249;42.690;23.260;2023-12-07T01:16:16;93846.81;;;4.98;100.00
6433;BME280;3249;42.690;23.260;2023-12-07T01:18:45;93844.13;;;5.13;100.00
6433;BME280;3249;42.690;23.260;2023-12-07T01:21:17;93839.63;;;5.21;100.00
6433;BME280;3249;42.690;23.260;2023-12-07T01:23:47;93836.28;;;5.21;100.00
6433;BME280;3249;42.690;23.260;2023-12-07T01:26:16;93846.88;;;5.24;100.00
6433;BME280;3249;42.690;23.260;2023-12-07T01:28:45;93834.59;;;4.74;100.00
6433;BME280;3249;42.690;23.260;2023-12-07T01:31:15;93836.94;;;4.69;100.00
6433;BME280;3249;42.690;23.260;2023-12-07T01:33:44;93839.88;;;4.66;100.00
6433;BME280;3249;42.690;23.260;2023-12-07T01:36:14;93838.94;;;4.33;100.00
6433;BME280;3249;42.690;23.260;2023-12-07T01:38:49;93838.47;;;4.57;100.00
6433;BME280;3249;42.690;23.260;2023-12-07T01:41:18;93831.09;;;4.75;100.00
6433;BME280;3249;42.690;23.260;2023-12-07T01:43:47;93837.22;;;4.87;100.00
6433;BME280;3249;42.690;23.260;2023-12-07T01:46:19;93824.66;;;4.92;100.00
6433;BME280;3249;42.690;23.260;2023-12-07T01:48:50;93817.38;;;4.89;100.00
6433;BME280;3249;42.690;23.260;2023-12-07T01:51:20;93823.81;;;4.72;100.00
6433;BME280;3249;42.690;23.260;2023-12-07T01:53:52;93823.44;;;4.75;100.00
6433;BME280;3249;42.690;23.260;2023-12-07T01:56:21;93831.28;;;4.80;100.00
6433;BME280;3249;42.690;23.260;2023-12-07T01:58:53;93818.75;;;4.85;100.00
6433;BME280;3249;42.690;23.260;2023-12-07T02:01:25;93822.28;;;4.90;100.00
6433;BME280;3249;42.690;23.260;2023-12-07T02:03:54;93831.34;;;4.99;100.00
6433;BME280;3249;42.690;23.260;2023-12-07T02:06:26;93832.94;;;5.07;100.00
6433;BME280;3249;42.690;23.260;2023-12-07T02:08:58;93828.59;;;5.14;100.00
6433;BME280;3249;42.690;23.260;2023-12-07T02:11:28;93836.09;;;5.29;100.00
6433;BME280;3249;42.690;23.260;2023-12-07T02:14:01;93832.75;;;5.28;100.00
6433;BME280;3249;42.690;23.260;2023-12-07T02:16:35;93827.66;;;5.41;100.00
6433;BME280;3249;42.690;23.260;2023-12-07T02:19:16;93834.13;;;5.50;100.00
6433;BME280;3249;42.690;23.260;2023-12-07T02:21:54;93796.47;;;5.33;100.00
6433;BME280;3249;42.690;23.260;2023-12-07T02:24:28;93829.81;;;5.51;100.00
6433;BME280;3249;42.690;23.260;2023-12-07T02:27:05;93820.38;;;5.25;100.00
6433;BME280;3249;42.690;23.260;2023-12-07T02:29:34;93832.38;;;5.44;100.00
6433;BME280;3249;42.690;23.260;2023-12-07T02:32:04;93820.81;;;5.48;100.00
6433;BME280;3249;42.690;23.260;2023-12-07T02:34:34;93828.47;;;5.48;100.00
6433;BME280;3249;42.690;23.260;2023-12-07T02:37:04;93816.88;;;5.33;100.00
6433;BME280;3249;42.690;23.260;2023-12-07T02:39:33;93791.34;;;5.20;100.00
6433;BME280;3249;42.690;23.260;2023-12-07T02:42:06;93818.63;;;5.39;100.00
6433;BME280;3249;42.690;23.260;2023-12-07T02:44:36;93816.28;;;5.37;100.00
6433;BME280;3249;42.690;23.260;2023-12-07T02:47:11;93817.66;;;5.40;100.00
6433;BME280;3249;42.690;23.260;2023-12-07T02:49:40;93820.00;;;5.28;100.00
6433;BME280;3249;42.690;23.260;2023-12-07T02:52:17;93822.19;;;5.38;100.00
6433;BME280;3249;42.690;23.260;2023-12-07T02:54:46;93817.66;;;5.33;100.00
6433;BME280;3249;42.690;23.260;2023-12-07T02:57:18;93817.66;;;5.20;100.00
6433;BME280;3249;42.690;23.260;2023-12-07T02:59:47;93816.84;;;5.13;100.00
6433;BME280;3249;42.690;23.260;2023-12-07T03:02:17;93814.47;;;4.92;100.00
6433;BME280;3249;42.690;23.260;2023-12-07T03:04:46;93817.59;;;4.94;100.00
6433;BME280;3249;42.690;23.260;2023-12-07T03:07:15;93817.22;;;4.97;100.00
6433;BME280;3249;42.690;23.260;2023-12-07T03:09:44;93815.25;;;4.99;100.00
6433;BME280;3249;42.690;23.260;2023-12-07T03:12:14;93818.41;;;5.14;100.00
6433;BME280;3249;42.690;23.260;2023-12-07T03:14:47;93819.59;;;5.18;100.00
6433;BME280;3249;42.690;23.260;2023-12-07T03:17:16;93820.19;;;5.14;100.00
6433;BME280;3249;42.690;23.260;2023-12-07T03:19:46;93819.91;;;4.82;100.00
6433;BME280;3249;42.690;23.260;2023-12-07T03:22:16;93822.19;;;4.58;100.00
6433;BME280;3249;42.690;23.260;2023-12-07T03:24:46;93823.81;;;4.65;100.00
6433;BME280;3249;42.690;23.260;2023-12-07T03:27:15;93831.88;;;4.82;100.00
6433;BME280;3249;42.690;23.260;2023-12-07T03:29:42;93835.84;;;4.91;100.00
6433;BME280;3249;42.690;23.260;2023-12-07T03:32:14;93833.25;;;4.84;100.00
6433;BME280;3249;42.690;23.260;2023-12-07T03:34:44;93840.13;;;4.77;100.00
6433;BME280;3249;42.690;23.260;2023-12-07T03:37:13;93842.00;;;4.56;100.00
6433;BME280;3249;42.690;23.260;2023-12-07T03:39:42;93841.06;;;4.70;100.00
6433;BME280;3249;42.690;23.260;2023-12-07T03:42:11;93841.72;;;4.98;100.00
6433;BME280;3249;42.690;23.260;2023-12-07T03:44:41;93837.81;;;5.08;100.00
6433;BME280;3249;42.690;23.260;2023-12-07T03:47:16;93840.00;;;5.18;100.00
6433;BME280;3249;42.690;23.260;2023-12-07T03:49:48;93847.44;;;5.13;100.00
6433;BME280;3249;42.690;23.260;2023-12-07T03:52:18;93835.31;;;5.15;100.00
6433;BME280;3249;42.690;23.260;2023-12-07T03:54:47;93832.72;;;5.02;100.00
6433;BME280;3249;42.690;23.260;2023-12-07T03:57:17;93839.22;;;5.11;100.00
6433;BME280;3249;42.690;23.260;2023-12-07T03:59:46;93834.06;;;4.98;100.00
6433;BME280;3249;42.690;23.260;2023-12-07T04:02:18;93836.69;;;5.18;100.00
6433;BME280;3249;42.690;23.260;2023-12-07T04:04:47;93839.44;;;5.29;100.00
6433;BME280;3249;42.690;23.260;2023-12-07T04:07:17;93841.97;;;5.36;100.00
6433;BME280;3249;42.690;23.260;2023-12-07T04:09:46;93842.22;;;5.47;100.00
6433;BME280;3249;42.690;23.260;2023-12-07T04:12:16;93839.06;;;5.52;100.00
6433;BME280;3249;42.690;23.260;2023-12-07T04:14:45;93838.09;;;5.53;100.00
6433;BME280;3249;42.690;23.260;2023-12-07T04:17:15;93845.94;;;5.51;100.00
6433;BME280;3249;42.690;23.260;2023-12-07T04:19:46;93849.06;;;5.60;100.00
6433;BME280;3249;42.690;23.260;2023-12-07T04:22:16;93852.59;;;5.52;100.00
6433;BME280;3249;42.690;23.260;2023-12-07T04:24:45;93862.44;;;5.62;100.00
6433;BME280;3249;42.690;23.260;2023-12-07T04:27:14;93860.44;;;5.64;100.00
6433;BME280;3249;42.690;23.260;2023-12-07T04:29:43;93860.44;;;5.70;100.00
6433;BME280;3249;42.690;23.260;2023-12-07T04:32:13;93866.34;;;5.77;100.00
6433;BME280;3249;42.690;23.260;2023-12-07T04:34:42;93870.69;;;5.77;100.00
6433;BME280;3249;42.690;23.260;2023-12-07T04:37:14;93865.97;;;5.80;100.00
6433;BME280;3249;42.690;23.260;2023-12-07T04:39:43;93872.81;;;5.80;100.00
6433;BME280;3249;42.690;23.260;2023-12-07T04:42:12;93871.47;;;5.77;100.00
6433;BME280;3249;42.690;23.260;2023-12-07T04:44:42;93875.78;;;5.77;100.00
6433;BME280;3249;42.690;23.260;2023-12-07T04:47:11;93874.00;;;5.77;100.00
6433;BME280;3249;42.690;23.260;2023-12-07T04:49:40;93878.53;;;5.75;100.00
6433;BME280;3249;42.690;23.260;2023-12-07T04:52:09;93882.66;;;5.70;100.00
6433;BME280;3249;42.690;23.260;2023-12-07T04:54:42;93875.78;;;5.70;100.00
6433;BME280;3249;42.690;23.260;2023-12-07T04:57:11;93878.13;;;5.65;100.00
6433;BME280;3249;42.690;23.260;2023-12-07T04:59:40;93882.06;;;5.74;100.00
6433;BME280;3249;42.690;23.260;2023-12-07T05:02:13;93873.59;;;5.35;100.00
6433;BME280;3249;42.690;23.260;2023-12-07T05:04:43;93869.41;;;5.01;100.00
6433;BME280;3249;42.690;23.260;2023-12-07T05:07:13;93867.88;;;5.20;100.00
6433;BME280;3249;42.690;23.260;2023-12-07T05:09:45;93872.56;;;5.16;100.00
6433;BME280;3249;42.690;23.260;2023-12-07T05:12:16;93877.66;;;5.03;100.00
6433;BME280;3249;42.690;23.260;2023-12-07T05:14:46;93874.94;;;5.24;100.00
6433;BME280;3249;42.690;23.260;2023-12-07T05:17:16;93874.97;;;5.31;100.00
6433;BME280;3249;42.690;23.260;2023-12-07T05:19:46;93881.63;;;5.25;100.00
6433;BME280;3249;42.690;23.260;2023-12-07T05:22:15;93854.09;;;4.94;100.00
6433;BME280;3249;42.690;23.260;2023-12-07T05:24:46;93884.72;;;5.14;100.00
6433;BME280;3249;42.690;23.260;2023-12-07T05:27:16;93889.06;;;5.14;100.00
6433;BME280;3249;42.690;23.260;2023-12-07T05:29:45;93891.44;;;5.28;100.00
6433;BME280;3249;42.690;23.260;2023-12-07T05:32:15;93896.19;;;5.38;100.00
6433;BME280;3249;42.690;23.260;2023-12-07T05:34:44;93896.19;;;5.44;100.00
6433;BME280;3249;42.690;23.260;2023-12-07T05:37:13;93896.00;;;5.52;100.00
6433;BME280;3249;42.690;23.260;2023-12-07T05:39:42;93894.25;;;5.59;100.00
6433;BME280;3249;42.690;23.260;2023-12-07T05:42:15;93902.91;;;5.71;100.00
6433;BME280;3249;42.690;23.260;2023-12-07T05:44:44;93900.91;;;5.67;100.00
6433;BME280;3249;42.690;23.260;2023-12-07T05:47:14;93900.53;;;5.70;100.00
6433;BME280;3249;42.690;23.260;2023-12-07T05:49:43;93904.47;;;5.72;100.00
6433;BME280;3249;42.690;23.260;2023-12-07T05:52:12;93911.53;;;5.77;100.00
6433;BME280;3249;42.690;23.260;2023-12-07T05:54:41;93900.53;;;5.76;100.00
6433;BME280;3249;42.690;23.260;2023-12-07T05:57:15;93913.31;;;5.89;100.00
6433;BME280;3249;42.690;23.260;2023-12-07T05:59:46;93916.28;;;5.86;100.00
6433;BME280;3249;42.690;23.260;2023-12-07T06:02:15;93915.31;;;5.94;100.00
6433;BME280;3249;42.690;23.260;2023-12-07T06:04:45;93919.03;;;5.91;100.00
6433;BME280;3249;42.690;23.260;2023-12-07T06:07:14;93918.44;;;5.96;100.00
6433;BME280;3249;42.690;23.260;2023-12-07T06:09:43;93918.25;;;5.97;100.00
6433;BME280;3249;42.690;23.260;2023-12-07T06:12:15;93909.00;;;5.77;100.00
6433;BME280;3249;42.690;23.260;2023-12-07T06:14:44;93916.63;;;5.64;100.00
6433;BME280;3249;42.690;23.260;2023-12-07T06:17:14;93917.06;;;5.87;100.00
6433;BME280;3249;42.690;23.260;2023-12-07T06:19:43;93918.06;;;5.92;100.00
6433;BME280;3249;42.690;23.260;2023-12-07T06:22:12;93919.63;;;5.93;100.00
6433;BME280;3249;42.690;23.260;2023-12-07T06:24:41;93924.72;;;5.87;100.00
6433;BME280;3249;42.690;23.260;2023-12-07T06:27:11;93926.91;;;5.90;100.00
6433;BME280;3249;42.690;23.260;2023-12-07T06:29:43;93926.91;;;5.90;100.00
6433;BME280;3249;42.690;23.260;2023-12-07T06:32:12;93915.69;;;5.84;100.00
6433;BME280;3249;42.690;23.260;2023-12-07T06:34:43;93920.78;;;5.78;100.00
6433;BME280;3249;42.690;23.260;2023-12-07T06:37:13;93921.91;;;5.62;100.00
6433;BME280;3249;42.690;23.260;2023-12-07T06:39:44;93924.81;;;5.33;100.00
6433;BME280;3249;42.690;23.260;2023-12-07T06:42:14;93926.69;;;4.98;100.00
6433;BME280;3249;42.690;23.260;2023-12-07T06:44:47;93917.19;;;4.86;100.00
6433;BME280;3249;42.690;23.260;2023-12-07T06:47:17;93910.84;;;4.69;100.00
6433;BME280;3249;42.690;23.260;2023-12-07T06:49:47;93928.50;;;5.18;100.00
6433;BME280;3249;42.690;23.260;2023-12-07T06:52:16;93932.09;;;5.36;100.00
6433;BME280;3249;42.690;23.260;2023-12-07T06:54:45;93943.31;;;5.61;100.00
6433;BME280;3249;42.690;23.260;2023-12-07T06:57:14;93943.31;;;5.68;100.00
6433;BME280;3249;42.690;23.260;2023-12-07T06:59:47;93937.50;;;5.93;100.00
6433;BME280;3249;42.690;23.260;2023-12-07T07:02:18;93935.47;;;5.56;100.00
6433;BME280;3249;42.690;23.260;2023-12-07T07:04:49;93924.66;;;5.54;100.00
6433;BME280;3249;42.690;23.260;2023-12-07T07:07:18;93945.34;;;5.85;100.00
6433;BME280;3249;42.690;23.260;2023-12-07T07:09:48;93947.53;;;6.01;100.00
6433;BME280;3249;42.690;23.260;2023-12-07T07:12:17;93952.63;;;5.82;100.00
6433;BME280;3249;42.690;23.260;2023-12-07T07:14:49;93949.84;;;5.77;100.00
6433;BME280;3249;42.690;23.260;2023-12-07T07:17:18;93952.78;;;5.80;100.00
6433;BME280;3249;42.690;23.260;2023-12-07T07:19:47;93952.84;;;6.06;100.00
6433;BME280;3249;42.690;23.260;2023-12-07T07:22:18;93956.97;;;6.20;100.00
6433;BME280;3249;42.690;23.260;2023-12-07T07:24:49;93956.75;;;6.28;100.00
6433;BME280;3249;42.690;23.260;2023-12-07T07:27:18;93955.97;;;5.89;100.00
6433;BME280;3249;42.690;23.260;2023-12-07T07:29:50;93954.69;;;5.46;100.00
6433;BME280;3249;42.690;23.260;2023-12-07T07:32:20;93942.44;;;5.15;100.00
6433;BME280;3249;42.690;23.260;2023-12-07T07:34:49;93960.38;;;5.48;100.00
6433;BME280;3249;42.690;23.260;2023-12-07T07:37:18;93962.19;;;4.66;100.00
6433;BME280;3249;42.690;23.260;2023-12-07T07:39:48;93933.78;;;4.35;100.00
6433;BME280;3249;42.690;23.260;2023-12-07T07:42:19;93960.94;;;4.49;100.00
6433;BME280;3249;42.690;23.260;2023-12-07T07:44:51;93968.50;;;4.70;100.00
6433;BME280;3249;42.690;23.260;2023-12-07T07:47:21;93967.44;;;4.92;100.00
6433;BME280;3249;42.690;23.260;2023-12-07T07:49:50;93976.06;;;4.57;100.00
6433;BME280;3249;42.690;23.260;2023-12-07T07:52:20;93973.16;;;4.60;100.00
6433;BME280;3249;42.690;23.260;2023-12-07T07:54:49;93974.47;;;4.83;100.00
6433;BME280;3249;42.690;23.260;2023-12-07T07:57:18;93971.41;;;5.01;100.00
6433;BME280;3249;42.690;23.260;2023-12-07T07:59:47;93976.97;;;5.11;100.00
6433;BME280;3249;42.690;23.260;2023-12-07T08:02:20;93976.97;;;5.18;100.00
6433;BME280;3249;42.690;23.260;2023-12-07T08:04:50;93984.84;;;5.23;100.00
6433;BME280;3249;42.690;23.260;2023-12-07T08:07:22;93993.81;;;5.12;100.00
6433;BME280;3249;42.690;23.260;2023-12-07T08:09:52;93990.78;;;4.89;100.00
6433;BME280;3249;42.690;23.260;2023-12-07T08:12:26;93988.06;;;4.97;100.00
6433;BME280;3249;42.690;23.260;2023-12-07T08:14:55;93972.34;;;4.87;100.00
6433;BME280;3249;42.690;23.260;2023-12-07T08:17:28;94003.66;;;5.15;100.00
6433;BME280;3249;42.690;23.260;2023-12-07T08:19:57;93997.59;;;4.82;100.00
6433;BME280;3249;42.690;23.260;2023-12-07T08:22:27;94013.53;;;4.90;100.00
6433;BME280;3249;42.690;23.260;2023-12-07T08:24:58;94012.50;;;4.85;100.00
6433;BME280;3249;42.690;23.260;2023-12-07T08:27:28;94016.81;;;4.84;100.00
6433;BME280;3249;42.690;23.260;2023-12-07T08:29:58;94017.41;;;4.80;100.00
6433;BME280;3249;42.690;23.260;2023-12-07T08:32:31;94015.09;;;4.91;100.00
6433;BME280;3249;42.690;23.260;2023-12-07T08:35:01;94020.28;;;4.70;100.00
6433;BME280;3249;42.690;23.260;2023-12-07T08:37:32;94013.78;;;4.68;100.00
6433;BME280;3249;42.690;23.260;2023-12-07T08:40:01;94013.25;;;4.45;100.00
6433;BME280;3249;42.690;23.260;2023-12-07T08:42:30;94011.25;;;4.40;100.00
6433;BME280;3249;42.690;23.260;2023-12-07T08:45:00;94005.78;;;4.43;100.00
6433;BME280;3249;42.690;23.260;2023-12-07T08:47:33;94019.41;;;4.57;100.00
6433;BME280;3249;42.690;23.260;2023-12-07T08:50:03;94028.91;;;4.42;100.00
6433;BME280;3249;42.690;23.260;2023-12-07T08:52:34;94029.78;;;4.28;100.00
6433;BME280;3249;42.690;23.260;2023-12-07T08:55:04;94027.94;;;4.22;100.00
6433;BME280;3249;42.690;23.260;2023-12-07T08:57:33;94030.28;;;4.17;100.00
6433;BME280;3249;42.690;23.260;2023-12-07T09:00:05;94019.91;;;4.18;100.00
6433;BME280;3249;42.690;23.260;2023-12-07T09:02:37;94033.66;;;4.24;100.00
6433;BME280;3249;42.690;23.260;2023-12-07T09:05:08;94026.50;;;4.13;100.00
6433;BME280;3249;42.690;23.260;2023-12-07T09:07:37;94027.97;;;4.01;100.00
6433;BME280;3249;42.690;23.260;2023-12-07T09:10:08;94030.94;;;4.04;100.00
6433;BME280;3249;42.690;23.260;2023-12-07T09:12:38;94022.69;;;3.81;100.00
6433;BME280;3249;42.690;23.260;2023-12-07T09:15:08;94032.16;;;3.87;100.00
6433;BME280;3249;42.690;23.260;2023-12-07T09:17:40;94031.00;;;3.90;100.00
6433;BME280;3249;42.690;23.260;2023-12-07T09:20:10;94035.00;;;3.78;100.00
6433;BME280;3249;42.690;23.260;2023-12-07T09:22:42;94027.66;;;3.68;100.00
6433;BME280;3249;42.690;23.260;2023-12-07T09:25:11;94033.88;;;3.66;100.00
6433;BME280;3249;42.690;23.260;2023-12-07T09:27:40;94021.09;;;3.59;100.00
6433;BME280;3249;42.690;23.260;2023-12-07T09:30:11;93999.13;;;3.37;100.00
6433;BME280;3249;42.690;23.260;2023-12-07T09:32:43;93999.88;;;3.31;100.00
6433;BME280;3249;42.690;23.260;2023-12-07T09:35:13;94034.47;;;3.47;100.00
6433;BME280;3249;42.690;23.260;2023-12-07T09:37:45;94024.56;;;3.37;100.00
6433;BME280;3249;42.690;23.260;2023-12-07T09:40:15;94031.16;;;3.46;100.00
6433;BME280;3249;42.690;23.260;2023-12-07T09:42:47;94033.00;;;3.38;100.00
6433;BME280;3249;42.690;23.260;2023-12-07T09:45:17;94015.81;;;3.25;100.00
6433;BME280;3249;42.690;23.260;2023-12-07T09:47:51;94033.72;;;3.32;100.00
6433;BME280;3249;42.690;23.260;2023-12-07T09:50:22;94026.25;;;3.16;100.00
6433;BME280;3249;42.690;23.260;2023-12-07T09:52:53;94026.38;;;3.08;100.00
6433;BME280;3249;42.690;23.260;2023-12-07T09:55:23;94029.19;;;3.13;100.00
6433;BME280;3249;42.690;23.260;2023-12-07T09:57:52;94027.34;;;3.07;100.00
6433;BME280;3249;42.690;23.260;2023-12-07T10:00:24;94020.84;;;3.04;100.00
6433;BME280;3249;42.690;23.260;2023-12-07T10:02:57;94017.63;;;3.10;100.00
6433;BME280;3249;42.690;23.260;2023-12-07T10:05:27;94031.03;;;3.04;100.00
6433;BME280;3249;42.690;23.260;2023-12-07T10:07:57;94029.88;;;3.07;100.00
6433;BME280;3249;42.690;23.260;2023-12-07T10:10:26;94031.03;;;3.04;100.00
6433;BME280;3249;42.690;23.260;2023-12-07T10:12:58;94031.44;;;3.08;100.00
6433;BME280;3249;42.690;23.260;2023-12-07T10:15:28;94027.53;;;2.91;100.00
6433;BME280;3249;42.690;23.260;2023-12-07T10:18:00;94028.41;;;2.98;100.00
6433;BME280;3249;42.690;23.260;2023-12-07T10:20:33;94029.47;;;2.89;100.00
6433;BME280;3249;42.690;23.260;2023-12-07T10:23:03;94022.69;;;2.81;100.00
6433;BME280;3249;42.690;23.260;2023-12-07T10:25:36;93988.19;;;2.58;100.00
6433;BME280;3249;42.690;23.260;2023-12-07T10:28:07;94015.97;;;2.74;100.00
6433;BME280;3249;42.690;23.260;2023-12-07T10:30:39;94015.34;;;2.72;100.00
6433;BME280;3249;42.690;23.260;2023-12-07T10:33:13;94017.78;;;2.80;100.00
6433;BME280;3249;42.690;23.260;2023-12-07T10:35:42;94017.53;;;2.75;100.00
6433;BME280;3249;42.690;23.260;2023-12-07T10:38:12;94018.16;;;2.77;100.00
6433;BME280;3249;42.690;23.260;2023-12-07T10:40:41;94019.47;;;2.73;100.00
6433;BME280;3249;42.690;23.260;2023-12-07T10:43:11;94018.84;;;2.71;100.00
6433;BME280;3249;42.690;23.260;2023-12-07T10:45:41;93988.69;;;2.53;100.00
6433;BME280;3249;42.690;23.260;2023-12-07T10:48:15;94024.09;;;2.69;100.00
6433;BME280;3249;42.690;23.260;2023-12-07T10:50:46;94012.19;;;2.55;100.00
6433;BME280;3249;42.690;23.260;2023-12-07T10:53:27;94020.16;;;2.52;100.00
6433;BME280;3249;42.690;23.260;2023-12-07T10:56:00;94018.13;;;2.48;100.00
6433;BME280;3249;42.690;23.260;2023-12-07T10:58:35;94024.81;;;2.49;100.00
6433;BME280;3249;42.690;23.260;2023-12-07T11:01:07;94026.09;;;2.45;100.00
6433;BME280;3249;42.690;23.260;2023-12-07T11:03:40;94027.59;;;2.39;100.00
6433;BME280;3249;42.690;23.260;2023-12-07T11:06:10;94025.56;;;2.35;100.00
6433;BME280;3249;42.690;23.260;2023-12-07T11:08:41;94025.66;;;2.41;100.00
6433;BME280;3249;42.690;23.260;2023-12-07T11:11:20;94016.97;;;2.36;100.00
6433;BME280;3249;42.690;23.260;2023-12-07T11:13:57;94017.19;;;2.49;100.00
6433;BME280;3249;42.690;23.260;2023-12-07T11:16:30;94014.72;;;2.55;100.00
6433;BME280;3249;42.690;23.260;2023-12-07T11:19:03;94032.59;;;2.62;100.00
6433;BME280;3249;42.690;23.260;2023-12-07T11:21:37;94019.56;;;2.65;100.00
6433;BME280;3249;42.690;23.260;2023-12-07T11:24:06;94011.84;;;2.58;100.00
6433;BME280;3249;42.690;23.260;2023-12-07T11:26:36;94023.56;;;2.59;100.00
6433;BME280;3249;42.690;23.260;2023-12-07T11:29:07;94028.25;;;2.70;100.00
6433;BME280;3249;42.690;23.260;2023-12-07T11:31:37;94010.88;;;2.74;100.00
6433;BME280;3249;42.690;23.260;2023-12-07T11:34:10;94025.94;;;2.90;100.00
6433;BME280;3249;42.690;23.260;2023-12-07T11:36:41;94021.22;;;2.87;100.00
6433;BME280;3249;42.690;23.260;2023-12-07T11:39:17;94022.09;;;2.94;100.00
6433;BME280;3249;42.690;23.260;2023-12-07T11:41:54;94002.19;;;2.83;100.00
6433;BME280;3249;42.690;23.260;2023-12-07T11:44:33;94008.75;;;2.92;100.00
6433;BME280;3249;42.690;23.260;2023-12-07T11:47:03;94012.34;;;2.97;100.00
6433;BME280;3249;42.690;23.260;2023-12-07T11:49:35;94020.50;;;3.07;100.00
6433;BME280;3249;42.690;23.260;2023-12-07T11:52:13;94016.91;;;3.02;100.00
6433;BME280;3249;42.690;23.260;2023-12-07T11:54:44;94014.19;;;3.03;100.00
6433;BME280;3249;42.690;23.260;2023-12-07T11:57:14;93988.25;;;2.79;100.00
6433;BME280;3249;42.690;23.260;2023-12-07T11:59:44;94013.16;;;2.98;100.00
6433;BME280;3249;42.690;23.260;2023-12-07T12:02:14;94013.31;;;2.96;100.00
6433;BME280;3249;42.690;23.260;2023-12-07T12:04:46;93996.78;;;2.86;100.00
6433;BME280;3249;42.690;23.260;2023-12-07T12:07:16;94012.97;;;2.99;100.00
6433;BME280;3249;42.690;23.260;2023-12-07T12:09:46;94008.13;;;3.04;100.00
6433;BME280;3249;42.690;23.260;2023-12-07T12:12:15;94016.00;;;3.09;100.00
6433;BME280;3249;42.690;23.260;2023-12-07T12:14:44;94013.06;;;3.06;100.00
6433;BME280;3249;42.690;23.260;2023-12-07T12:17:15;94013.84;;;2.92;100.00
6433;BME280;3249;42.690;23.260;2023-12-07T12:19:47;94009.03;;;2.97;100.00
6433;BME280;3249;42.690;23.260;2023-12-07T12:22:23;94013.50;;;2.95;100.00
6433;BME280;3249;42.690;23.260;2023-12-07T12:24:53;94019.22;;;2.97;100.00
6433;BME280;3249;42.690;23.260;2023-12-07T12:27:23;94015.94;;;3.03;100.00
6433;BME280;3249;42.690;23.260;2023-12-07T12:29:52;94022.88;;;2.94;100.00
6433;BME280;3249;42.690;23.260;2023-12-07T12:32:22;94011.03;;;2.87;100.00
6433;BME280;3249;42.690;23.260;2023-12-07T12:34:54;94016.47;;;2.84;100.00
6433;BME280;3249;42.690;23.260;2023-12-07T12:37:24;94016.84;;;2.66;100.00
6433;BME280;3249;42.690;23.260;2023-12-07T12:39:55;94018.06;;;2.70;100.00
6433;BME280;3249;42.690;23.260;2023-12-07T12:42:26;94013.84;;;2.63;100.00
6433;BME280;3249;42.690;23.260;2023-12-07T12:44:57;94012.63;;;2.59;100.00
6433;BME280;3249;42.690;23.260;2023-12-07T12:47:29;94022.34;;;2.55;100.00
6433;BME280;3249;42.690;23.260;2023-12-07T12:50:02;94025.56;;;2.64;100.00
6433;BME280;3249;42.690;23.260;2023-12-07T12:52:32;94025.31;;;2.59;100.00
6433;BME280;3249;42.690;23.260;2023-12-07T12:55:08;94021.13;;;2.51;100.00
6433;BME280;3249;42.690;23.260;2023-12-07T12:57:41;94027.69;;;2.46;100.00
6433;BME280;3249;42.690;23.260;2023-12-07T13:00:13;94024.06;;;2.40;100.00
6433;BME280;3249;42.690;23.260;2023-12-07T13:02:47;94030.56;;;2.43;100.00
6433;BME280;3249;42.690;23.260;2023-12-07T13:05:20;94029.50;;;2.37;100.00
6433;BME280;3249;42.690;23.260;2023-12-07T13:07:49;94034.81;;;2.28;100.00
6433;BME280;3249;42.690;23.260;2023-12-07T13:10:19;94036.13;;;2.24;100.00
6433;BME280;3249;42.690;23.260;2023-12-07T13:12:51;94036.50;;;2.35;100.00
6433;BME280;3249;42.690;23.260;2023-12-07T13:15:22;94040.59;;;2.22;100.00
6433;BME280;3249;42.690;23.260;2023-12-07T13:17:51;94041.91;;;2.18;100.00
6433;BME280;3249;42.690;23.260;2023-12-07T13:20:26;94044.16;;;2.13;100.00
6433;BME280;3249;42.690;23.260;2023-12-07T13:22:55;94053.00;;;2.17;100.00
6433;BME280;3249;42.690;23.260;2023-12-07T13:25:24;94049.31;;;2.05;100.00
6433;BME280;3249;42.690;23.260;2023-12-07T13:27:54;94052.78;;;2.04;100.00